Nederland, Texas
Current Conditions -  °F | °C
As of 1:53 AM on Saturday 25 Oct 2014 (Local Time) from KBPT Reporting Station
Clear Clear  
Wind Chill: 54°   Ceiling: Unl
Heat Index: 54°   Visibility: 10mi
Dew Point: 52°   Wind: 3mph
Humidity: 93%   Direction: 330°NNW
Pressure: 30.12"   Gusts: NA
Location:  29.98°N, 93.99°W
Report Text: KBPT 250653Z AUTO 33003KT 10SM CLR 12/11 A3012 RMK AO2 SLP200 T01220111
Loading
Personal Weather Stations






























Interactive Weather Map
Tropical Storm Tracking
New forecast layout! Learn more

10-Day Weather Forecast

Advertisements
Track Severe Weather on mobile